createdAt,value
2023-01-20T00:03:41.062Z,16.58
2023-01-20T00:08:45.858Z,10.45
2023-01-20T00:13:49.712Z,10.32
2023-01-20T00:18:53.325Z,9.43
2023-01-20T00:23:58.098Z,9.85
2023-01-20T00:29:01.397Z,12.23
2023-01-20T00:34:05.295Z,9.90
2023-01-20T00:39:10.035Z,12.23
2023-01-20T00:44:13.423Z,15.03
2023-01-20T00:49:16.788Z,16.60
2023-01-20T00:54:21.605Z,16.88
2023-01-20T00:59:25.024Z,16.50
2023-01-20T01:04:28.320Z,12.98
2023-01-20T01:09:33.577Z,12.80
2023-01-20T01:14:36.927Z,11.63
2023-01-20T01:19:40.327Z,12.52
2023-01-20T01:24:46.289Z,13.25
2023-01-20T01:29:49.585Z,11.98
2023-01-20T01:34:52.885Z,11.85
2023-01-20T01:39:57.786Z,11.03
2023-01-20T01:45:21.755Z,10.23
2023-01-20T01:50:28.673Z,11.77
2023-01-20T01:55:37.039Z,11.25
2023-01-20T02:00:41.094Z,11.00
2023-01-20T02:05:46.060Z,10.93
2023-01-20T02:10:50.790Z,10.20
2023-01-20T02:16:04.427Z,11.73
2023-01-20T02:21:45.586Z,12.10
2023-01-20T02:27:04.714Z,11.57
2023-01-20T02:32:18.475Z,11.70
2023-01-20T02:37:26.690Z,11.23
2023-01-20T02:42:38.029Z,11.60
2023-01-20T02:47:50.997Z,11.82
2023-01-20T02:52:59.662Z,11.37
2023-01-20T02:58:07.306Z,11.90
2023-01-20T03:03:16.435Z,11.98
2023-01-20T03:08:20.427Z,12.95
2023-01-20T03:13:27.257Z,11.25
2023-01-20T03:18:33.858Z,13.17
2023-01-20T03:23:41.055Z,12.13
2023-01-20T03:28:45.451Z,12.15
2023-01-20T03:33:52.535Z,11.73
2023-01-20T03:38:57.213Z,12.27
2023-01-20T03:44:12.807Z,11.52
2023-01-20T03:49:26.414Z,12.63
2023-01-20T03:54:35.584Z,12.55
2023-01-20T03:59:41.468Z,15.70
2023-01-20T04:04:48.752Z,12.00
2023-01-20T04:09:55.045Z,11.45
2023-01-20T04:14:58.455Z,10.20
2023-01-20T04:20:08.488Z,10.80
2023-01-20T04:25:16.028Z,10.13
2023-01-20T04:30:20.274Z,9.25
2023-01-20T04:35:25.348Z,10.57
2023-01-20T04:40:28.698Z,10.13
2023-01-20T04:45:32.042Z,9.43
2023-01-20T04:50:39.935Z,9.15
2023-01-20T04:55:43.229Z,9.55
2023-01-20T05:00:46.553Z,9.73
2023-01-20T05:05:55.425Z,8.75
2023-01-20T05:10:58.810Z,10.90
2023-01-20T05:16:03.215Z,12.35
2023-01-20T05:21:09.031Z,11.02
2023-01-20T05:26:12.689Z,9.48
2023-01-20T05:31:16.377Z,11.03
2023-01-20T05:36:21.259Z,11.10
2023-01-20T05:41:24.658Z,10.57
2023-01-20T05:46:28.160Z,11.30
2023-01-20T05:51:33.605Z,11.00
2023-01-20T05:56:36.985Z,10.60
2023-01-20T06:01:40.722Z,10.70
2023-01-20T06:06:45.525Z,10.73
2023-01-20T06:11:48.826Z,11.75
2023-01-20T06:16:52.074Z,10.30
2023-01-20T06:21:56.727Z,11.77
2023-01-20T06:26:59.993Z,12.48
2023-01-20T06:32:03.236Z,12.70
2023-01-20T06:37:07.876Z,13.17
2023-01-20T06:42:11.742Z,11.00
2023-01-20T06:47:15.008Z,12.93
2023-01-20T06:52:19.671Z,18.20
2023-01-20T06:57:22.962Z,18.92
2023-01-20T07:02:26.464Z,17.60
2023-01-20T07:07:31.159Z,16.50
2023-01-20T07:12:34.411Z,12.18
2023-01-20T07:17:37.690Z,12.17
2023-01-20T07:22:42.331Z,11.73
2023-01-20T07:27:45.595Z,12.43
2023-01-20T07:32:48.837Z,13.40
2023-01-20T07:37:53.483Z,11.48
2023-01-20T07:42:56.858Z,12.23
2023-01-20T07:48:00.145Z,13.03
2023-01-20T07:53:05.555Z,14.45
2023-01-20T07:58:08.979Z,15.57
2023-01-20T08:03:12.233Z,15.67
2023-01-20T08:08:16.948Z,17.55
2023-01-20T08:13:20.235Z,17.00
2023-01-20T08:18:23.619Z,15.80
2023-01-20T08:23:28.507Z,16.40
2023-01-20T08:28:34.100Z,16.92
2023-01-20T08:33:37.573Z,16.10
2023-01-20T08:38:45.733Z,17.02
2023-01-20T08:43:49.532Z,20.30
2023-01-20T08:48:54.257Z,18.05
2023-01-20T08:53:59.129Z,18.17
2023-01-20T08:59:02.791Z,16.95
2023-01-20T09:04:07.632Z,17.05
2023-01-20T09:09:13.271Z,17.58
2023-01-20T09:14:16.549Z,17.73
2023-01-20T09:19:20.165Z,22.57
2023-01-20T09:24:24.898Z,21.50
2023-01-20T09:29:28.221Z,45.63
2023-01-20T09:34:32.766Z,15.63
2023-01-20T09:39:55.571Z,18.52
2023-01-20T09:45:25.044Z,15.85
2023-01-20T09:50:56.575Z,16.37
2023-01-20T09:56:06.472Z,12.27
2023-01-20T10:01:18.218Z,10.27
2023-01-20T10:06:26.498Z,12.65
2023-01-20T10:11:34.689Z,16.00
2023-01-20T10:16:45.435Z,13.95
2023-01-20T10:21:54.698Z,13.32
2023-01-20T10:27:02.837Z,11.05
2023-01-20T10:32:14.560Z,12.50
2023-01-20T10:37:18.070Z,15.60
2023-01-20T10:42:24.281Z,12.52
2023-01-20T10:47:35.222Z,13.10
2023-01-20T10:53:02.665Z,12.07
2023-01-20T10:58:17.950Z,13.85
2023-01-20T11:03:23.677Z,15.47
2023-01-20T11:08:29.755Z,13.23
2023-01-20T11:13:34.397Z,11.88
2023-01-20T11:18:37.803Z,14.37
2023-01-20T11:23:43.374Z,15.63
2023-01-20T11:28:52.859Z,14.50
2023-01-20T11:33:58.454Z,21.73
2023-01-20T11:39:01.958Z,12.68
2023-01-20T11:44:08.260Z,12.67
2023-01-20T11:49:17.808Z,13.13
2023-01-20T11:54:23.787Z,12.38
2023-01-20T11:59:31.847Z,13.93
2023-01-20T12:04:50.871Z,14.50
2023-01-20T12:10:04.069Z,13.20
2023-01-20T12:15:16.237Z,13.23
2023-01-20T12:20:27.626Z,13.20
2023-01-20T12:25:33.456Z,14.97
2023-01-20T12:30:47.538Z,13.93
2023-01-20T12:36:17.810Z,15.50
2023-01-20T12:41:35.872Z,17.35
2023-01-20T12:46:45.668Z,20.52
2023-01-20T12:52:04.416Z,16.17
2023-01-20T12:57:18.183Z,17.57
2023-01-20T13:02:53.570Z,17.20
2023-01-20T13:08:08.363Z,17.83
2023-01-20T13:13:21.969Z,18.20
2023-01-20T13:18:34.417Z,17.42
2023-01-20T13:23:38.680Z,20.57
2023-01-20T13:28:52.500Z,20.27
2023-01-20T13:34:33.729Z,18.47
2023-01-20T13:39:46.405Z,17.77
2023-01-20T13:45:20.204Z,19.85
2023-01-20T13:50:27.717Z,20.17
2023-01-20T13:55:31.649Z,21.45
2023-01-20T14:00:34.935Z,20.38
2023-01-20T14:05:40.670Z,18.05
2023-01-20T14:10:44.229Z,19.17
2023-01-20T14:15:51.284Z,18.35
2023-01-20T14:21:18.537Z,16.23
2023-01-20T14:26:23.754Z,16.17
2023-01-20T14:31:40.691Z,16.60
2023-01-20T14:36:45.783Z,14.77
2023-01-20T14:41:50.807Z,17.80
2023-01-20T14:46:56.713Z,14.25
2023-01-20T14:52:02.236Z,15.48
2023-01-20T14:57:20.588Z,13.57
2023-01-20T15:02:28.890Z,13.88
2023-01-20T15:07:35.007Z,17.60
2023-01-20T15:12:42.756Z,14.68
2023-01-20T15:18:06.084Z,14.57
2023-01-20T15:23:17.205Z,14.35
2023-01-20T15:28:30.185Z,15.05
2023-01-20T15:33:33.472Z,13.07
2023-01-20T15:38:38.118Z,16.75
2023-01-20T15:43:42.570Z,15.10
2023-01-20T15:48:46.650Z,14.45
2023-01-20T15:53:51.369Z,14.33
2023-01-20T15:58:54.761Z,16.35
2023-01-20T16:03:58.742Z,14.67
2023-01-20T16:09:05.060Z,17.03
2023-01-20T16:14:08.309Z,16.70
2023-01-20T16:19:13.578Z,14.90
2023-01-20T16:24:18.380Z,13.32
2023-01-20T16:29:21.814Z,12.50
2023-01-20T16:34:25.256Z,12.98
2023-01-20T16:39:30.344Z,13.40
2023-01-20T16:44:33.759Z,19.00
2023-01-20T16:49:37.209Z,21.30
2023-01-20T16:54:42.113Z,15.90
2023-01-20T16:59:45.616Z,10.68
2023-01-20T17:04:48.992Z,10.30
2023-01-20T17:09:53.830Z,10.20
2023-01-20T17:14:57.187Z,13.70
2023-01-20T17:20:01.135Z,10.40
2023-01-20T17:25:06.750Z,11.75
2023-01-20T17:30:11.301Z,11.73
2023-01-20T17:35:14.617Z,11.63
2023-01-20T17:40:19.610Z,12.37
2023-01-20T17:45:23.362Z,11.37
2023-01-20T17:50:29.459Z,12.80
2023-01-20T17:55:34.394Z,14.48
2023-01-20T18:00:38.027Z,13.43
2023-01-20T18:05:41.622Z,13.10
2023-01-20T18:10:47.479Z,12.05
2023-01-20T18:15:51.063Z,14.20
2023-01-20T18:20:54.575Z,15.67
2023-01-20T18:25:59.486Z,13.45
2023-01-20T18:31:08.598Z,14.40
2023-01-20T18:36:14.873Z,14.77
2023-01-20T18:41:20.175Z,15.50
2023-01-20T18:46:23.598Z,15.52
2023-01-20T18:51:29.532Z,14.53
2023-01-20T18:56:35.034Z,14.10
2023-01-20T19:01:40.196Z,14.30
2023-01-20T19:06:45.514Z,15.77
2023-01-20T19:11:50.307Z,14.88
2023-01-20T19:16:53.648Z,14.32
2023-01-20T19:21:56.998Z,15.98
2023-01-20T19:27:03.140Z,18.50
2023-01-20T19:32:06.565Z,16.00
2023-01-20T19:37:09.916Z,17.27
2023-01-20T19:42:14.592Z,16.77
2023-01-20T19:47:17.904Z,17.15
2023-01-20T19:52:21.240Z,18.77
2023-01-20T19:57:27.199Z,18.97
2023-01-20T20:02:30.643Z,21.30
2023-01-20T20:07:36.085Z,22.40
2023-01-20T20:12:41.156Z,20.43
2023-01-20T20:17:44.435Z,18.15
2023-01-20T20:22:47.765Z,20.67
2023-01-20T20:27:52.910Z,17.88
2023-01-20T20:32:56.685Z,18.27
2023-01-20T20:38:00.526Z,20.50
2023-01-20T20:43:05.365Z,20.93
2023-01-20T20:48:10.060Z,21.70
2023-01-20T20:53:13.840Z,21.67
2023-01-20T20:58:18.516Z,20.30
2023-01-20T21:03:21.790Z,21.02
2023-01-20T21:08:25.892Z,19.52
2023-01-20T21:13:31.242Z,38.20
2023-01-20T21:18:34.906Z,19.67
2023-01-20T21:23:38.451Z,21.20
2023-01-20T21:28:44.528Z,23.27
2023-01-20T21:33:49.293Z,22.05
2023-01-20T21:38:53.060Z,21.87
2023-01-20T21:44:15.284Z,22.15
2023-01-20T21:49:36.204Z,20.60
2023-01-20T21:54:41.363Z,20.80
2023-01-20T21:59:47.109Z,21.23
2023-01-20T22:04:51.030Z,21.08
2023-01-20T22:09:57.849Z,36.60
2023-01-20T22:15:03.279Z,22.95
2023-01-20T22:20:07.647Z,20.58
2023-01-20T22:25:11.358Z,22.92
2023-01-20T22:30:17.050Z,21.88
2023-01-20T22:35:20.886Z,20.65
2023-01-20T22:40:24.329Z,20.90
2023-01-20T22:45:29.768Z,19.73
2023-01-20T22:50:34.789Z,17.75
2023-01-20T22:55:48.871Z,19.95
2023-01-20T23:01:01.403Z,17.10
2023-01-20T23:06:04.957Z,21.63
2023-01-20T23:11:10.418Z,16.98
2023-01-20T23:16:17.685Z,17.20
2023-01-20T23:21:21.938Z,18.37
2023-01-20T23:26:27.010Z,17.27
2023-01-20T23:31:33.601Z,19.77
2023-01-20T23:36:37.051Z,22.63
2023-01-20T23:41:40.392Z,18.48
2023-01-20T23:46:45.187Z,20.98
2023-01-20T23:51:48.650Z,25.27
2023-01-20T23:56:52.038Z,26.50
